sensor_id;sensor_type;location;lat;lon;timestamp;pressure;altitude;pressure_sealevel;temperature;humidity
46009;BME280;39597;51.438;7.006;2022-10-26T00:00:26;100015.44;;;11.28;94.90
46009;BME280;39597;51.438;7.006;2022-10-26T00:02:56;100008.94;;;11.21;95.21
46009;BME280;39597;51.438;7.006;2022-10-26T00:05:22;100007.91;;;11.25;95.54
46009;BME280;39597;51.438;7.006;2022-10-26T00:07:48;99997.59;;;11.31;94.80
46009;BME280;39597;51.438;7.006;2022-10-26T00:10:15;99999.28;;;11.35;94.66
46009;BME280;39597;51.438;7.006;2022-10-26T00:12:40;99999.41;;;11.39;94.44
46009;BME280;39597;51.438;7.006;2022-10-26T00:15:07;99998.72;;;11.42;94.21
46009;BME280;39597;51.438;7.006;2022-10-26T00:17:32;99994.19;;;11.46;94.40
46009;BME280;39597;51.438;7.006;2022-10-26T00:19:58;99993.25;;;11.54;93.70
46009;BME280;39597;51.438;7.006;2022-10-26T00:22:25;99995.97;;;11.54;93.75
46009;BME280;39597;51.438;7.006;2022-10-26T00:24:50;99994.25;;;11.62;93.43
46009;BME280;39597;51.438;7.006;2022-10-26T00:27:15;99991.75;;;11.57;94.00
46009;BME280;39597;51.438;7.006;2022-10-26T00:29:41;99990.75;;;11.61;93.98
46009;BME280;39597;51.438;7.006;2022-10-26T00:32:06;99995.25;;;11.69;93.41
46009;BME280;39597;51.438;7.006;2022-10-26T00:34:31;99980.69;;;11.78;93.06
46009;BME280;39597;51.438;7.006;2022-10-26T00:36:57;99989.91;;;11.85;92.39
46009;BME280;39597;51.438;7.006;2022-10-26T00:39:22;99990.91;;;11.93;92.37
46009;BME280;39597;51.438;7.006;2022-10-26T00:41:48;99987.22;;;12.01;91.86
46009;BME280;39597;51.438;7.006;2022-10-26T00:46:57;99994.28;;;12.02;91.40
46009;BME280;39597;51.438;7.006;2022-10-26T00:49:23;99992.00;;;12.04;91.60
46009;BME280;39597;51.438;7.006;2022-10-26T00:51:51;99985.03;;;12.07;91.49
46009;BME280;39597;51.438;7.006;2022-10-26T00:54:18;99991.56;;;12.02;91.45
46009;BME280;39597;51.438;7.006;2022-10-26T00:56:48;99982.91;;;12.00;91.73
46009;BME280;39597;51.438;7.006;2022-10-26T00:59:15;99978.34;;;12.04;91.63
46009;BME280;39597;51.438;7.006;2022-10-26T01:01:45;99986.88;;;12.02;91.81
46009;BME280;39597;51.438;7.006;2022-10-26T01:04:13;99990.94;;;12.09;91.58
46009;BME280;39597;51.438;7.006;2022-10-26T01:06:40;99982.88;;;12.12;91.39
46009;BME280;39597;51.438;7.006;2022-10-26T01:09:06;99981.28;;;12.11;91.67
46009;BME280;39597;51.438;7.006;2022-10-26T01:11:32;99978.09;;;12.09;91.50
46009;BME280;39597;51.438;7.006;2022-10-26T01:13:59;99982.88;;;12.12;91.51
46009;BME280;39597;51.438;7.006;2022-10-26T01:19:40;99975.91;;;12.15;92.04
46009;BME280;39597;51.438;7.006;2022-10-26T01:22:28;99978.34;;;12.04;92.05
46009;BME280;39597;51.438;7.006;2022-10-26T01:27:44;99974.25;;;12.10;91.81
46009;BME280;39597;51.438;7.006;2022-10-26T01:33:17;99960.75;;;12.01;92.50
46009;BME280;39597;51.438;7.006;2022-10-26T01:36:02;99953.16;;;11.95;92.63
46009;BME280;39597;51.438;7.006;2022-10-26T01:38:46;99957.34;;;11.92;93.12
46009;BME280;39597;51.438;7.006;2022-10-26T01:44:37;99947.88;;;12.02;92.93
46009;BME280;39597;51.438;7.006;2022-10-26T01:47:08;99949.03;;;12.01;92.61
46009;BME280;39597;51.438;7.006;2022-10-26T01:49:38;99937.31;;;12.00;92.80
46009;BME280;39597;51.438;7.006;2022-10-26T01:52:09;99942.88;;;12.04;92.71
46009;BME280;39597;51.438;7.006;2022-10-26T01:54:35;99943.75;;;12.08;92.67
46009;BME280;39597;51.438;7.006;2022-10-26T01:57:01;99941.50;;;12.10;92.62
46009;BME280;39597;51.438;7.006;2022-10-26T01:59:55;99940.44;;;12.15;92.23
46009;BME280;39597;51.438;7.006;2022-10-26T02:05:15;99925.22;;;12.14;92.31
46009;BME280;39597;51.438;7.006;2022-10-26T02:07:55;99926.19;;;12.21;92.05
46009;BME280;39597;51.438;7.006;2022-10-26T02:13:14;99926.19;;;12.21;92.26
46009;BME280;39597;51.438;7.006;2022-10-26T02:15:48;99928.66;;;12.26;92.17
46009;BME280;39597;51.438;7.006;2022-10-26T02:18:23;99923.38;;;12.33;91.81
46009;BME280;39597;51.438;7.006;2022-10-26T02:20:55;99922.06;;;12.27;91.98
46009;BME280;39597;51.438;7.006;2022-10-26T02:23:25;99921.09;;;12.35;91.52
46009;BME280;39597;51.438;7.006;2022-10-26T02:25:55;99916.06;;;12.38;92.03
46009;BME280;39597;51.438;7.006;2022-10-26T02:28:27;99912.75;;;12.44;91.48
46009;BME280;39597;51.438;7.006;2022-10-26T02:30:57;99916.78;;;12.50;91.15
46009;BME280;39597;51.438;7.006;2022-10-26T02:33:26;99911.41;;;12.54;91.16
46009;BME280;39597;51.438;7.006;2022-10-26T02:35:53;99916.72;;;12.62;90.84
46009;BME280;39597;51.438;7.006;2022-10-26T02:38:20;99908.59;;;12.66;90.62
46009;BME280;39597;51.438;7.006;2022-10-26T02:40:49;99903.13;;;12.66;90.53
46009;BME280;39597;51.438;7.006;2022-10-26T02:43:17;99899.84;;;12.76;89.94
46009;BME280;39597;51.438;7.006;2022-10-26T02:45:50;99897.22;;;12.80;89.84
46009;BME280;39597;51.438;7.006;2022-10-26T02:48:17;99901.63;;;12.84;89.59
46009;BME280;39597;51.438;7.006;2022-10-26T02:50:46;99894.28;;;12.88;89.71
46009;BME280;39597;51.438;7.006;2022-10-26T02:53:21;99894.03;;;12.93;89.23
46009;BME280;39597;51.438;7.006;2022-10-26T02:55:49;99894.53;;;12.99;89.07
46009;BME280;39597;51.438;7.006;2022-10-26T02:58:19;99889.56;;;13.05;88.69
46009;BME280;39597;51.438;7.006;2022-10-26T03:00:46;99887.03;;;13.12;88.66
46009;BME280;39597;51.438;7.006;2022-10-26T03:03:12;99888.69;;;13.16;88.33
46009;BME280;39597;51.438;7.006;2022-10-26T03:05:40;99884.09;;;13.20;88.10
46009;BME280;39597;51.438;7.006;2022-10-26T03:08:05;99878.69;;;13.24;88.18
46009;BME280;39597;51.438;7.006;2022-10-26T03:10:31;99887.34;;;13.26;88.07
46009;BME280;39597;51.438;7.006;2022-10-26T03:12:57;99885.91;;;13.32;87.54
46009;BME280;39597;51.438;7.006;2022-10-26T03:15:23;99877.06;;;13.39;87.14
46009;BME280;39597;51.438;7.006;2022-10-26T03:17:48;99878.28;;;13.41;87.01
46009;BME280;39597;51.438;7.006;2022-10-26T03:20:13;99880.53;;;13.55;86.84
46009;BME280;39597;51.438;7.006;2022-10-26T03:22:39;99874.69;;;13.57;86.48
46009;BME280;39597;51.438;7.006;2022-10-26T03:25:05;99875.56;;;13.61;86.18
46009;BME280;39597;51.438;7.006;2022-10-26T03:27:30;99875.28;;;13.66;85.92
46009;BME280;39597;51.438;7.006;2022-10-26T03:29:55;99878.88;;;13.70;85.75
46009;BME280;39597;51.438;7.006;2022-10-26T03:32:21;99873.41;;;13.70;85.43
46009;BME280;39597;51.438;7.006;2022-10-26T03:34:47;99873.41;;;13.70;85.24
46009;BME280;39597;51.438;7.006;2022-10-26T03:37:12;99877.00;;;13.74;85.38
46009;BME280;39597;51.438;7.006;2022-10-26T03:39:38;99874.69;;;13.76;85.17
46009;BME280;39597;51.438;7.006;2022-10-26T03:42:03;99870.88;;;13.80;84.95
46009;BME280;39597;51.438;7.006;2022-10-26T03:44:28;99872.47;;;13.81;84.86
46009;BME280;39597;51.438;7.006;2022-10-26T03:46:54;99879.09;;;13.80;84.93
46009;BME280;39597;51.438;7.006;2022-10-26T03:49:20;99879.09;;;13.80;85.03
46009;BME280;39597;51.438;7.006;2022-10-26T03:51:45;99878.00;;;13.85;85.02
46009;BME280;39597;51.438;7.006;2022-10-26T03:54:11;99878.41;;;13.87;85.14
46009;BME280;39597;51.438;7.006;2022-10-26T03:56:37;99882.19;;;13.79;85.43
46009;BME280;39597;51.438;7.006;2022-10-26T03:59:03;99882.44;;;13.93;84.99
46009;BME280;39597;51.438;7.006;2022-10-26T04:01:28;99884.03;;;13.94;84.80
46009;BME280;39597;51.438;7.006;2022-10-26T04:03:53;99879.06;;;14.00;84.33
46009;BME280;39597;51.438;7.006;2022-10-26T04:06:19;99881.59;;;13.89;84.75
46009;BME280;39597;51.438;7.006;2022-10-26T04:08:44;99868.72;;;14.12;83.87
46009;BME280;39597;51.438;7.006;2022-10-26T04:11:09;99871.94;;;14.18;83.01
46009;BME280;39597;51.438;7.006;2022-10-26T04:13:34;99875.06;;;14.17;83.26
46009;BME280;39597;51.438;7.006;2022-10-26T04:16:00;99876.94;;;14.12;83.40
46009;BME280;39597;51.438;7.006;2022-10-26T04:18:25;99882.97;;;14.22;83.24
46009;BME280;39597;51.438;7.006;2022-10-26T04:20:50;99881.44;;;14.24;82.67
46009;BME280;39597;51.438;7.006;2022-10-26T04:23:18;99876.22;;;14.15;83.18
46009;BME280;39597;51.438;7.006;2022-10-26T04:25:43;99881.81;;;14.23;83.21
46009;BME280;39597;51.438;7.006;2022-10-26T04:28:10;99887.44;;;14.10;83.28
46009;BME280;39597;51.438;7.006;2022-10-26T04:30:37;99895.78;;;13.95;84.32
46009;BME280;39597;51.438;7.006;2022-10-26T04:33:03;99884.31;;;14.31;82.01
46009;BME280;39597;51.438;7.006;2022-10-26T04:35:30;99887.47;;;14.33;81.80
46009;BME280;39597;51.438;7.006;2022-10-26T04:38:00;99887.41;;;14.30;81.99
46009;BME280;39597;51.438;7.006;2022-10-26T04:40:28;99881.31;;;14.40;81.08
46009;BME280;39597;51.438;7.006;2022-10-26T04:42:54;99887.59;;;14.40;81.04
46009;BME280;39597;51.438;7.006;2022-10-26T04:45:20;99888.75;;;14.39;81.50
46009;BME280;39597;51.438;7.006;2022-10-26T04:47:45;99887.16;;;14.38;81.61
46009;BME280;39597;51.438;7.006;2022-10-26T04:50:12;99886.38;;;14.38;81.45
46009;BME280;39597;51.438;7.006;2022-10-26T04:52:37;99876.22;;;14.38;81.10
46009;BME280;39597;51.438;7.006;2022-10-26T04:55:03;99872.72;;;14.41;80.79
46009;BME280;39597;51.438;7.006;2022-10-26T04:57:33;99872.06;;;14.44;81.12
46009;BME280;39597;51.438;7.006;2022-10-26T05:00:00;99874.06;;;14.48;80.61
46009;BME280;39597;51.438;7.006;2022-10-26T05:02:27;99874.44;;;14.46;80.64
46009;BME280;39597;51.438;7.006;2022-10-26T05:04:52;99862.41;;;14.54;80.25
46009;BME280;39597;51.438;7.006;2022-10-26T05:07:17;99874.91;;;14.52;80.53
46009;BME280;39597;51.438;7.006;2022-10-26T05:09:43;99875.22;;;14.47;80.84
46009;BME280;39597;51.438;7.006;2022-10-26T05:12:08;99874.44;;;14.46;80.61
46009;BME280;39597;51.438;7.006;2022-10-26T05:14:33;99879.94;;;14.50;80.84
46009;BME280;39597;51.438;7.006;2022-10-26T05:16:58;99877.22;;;14.50;80.46
46009;BME280;39597;51.438;7.006;2022-10-26T05:19:24;99874.53;;;14.53;80.50
46009;BME280;39597;51.438;7.006;2022-10-26T05:21:49;99866.34;;;14.57;80.05
46009;BME280;39597;51.438;7.006;2022-10-26T05:24:18;99873.78;;;14.56;79.81
46009;BME280;39597;51.438;7.006;2022-10-26T05:26:44;99873.03;;;14.59;79.66
46009;BME280;39597;51.438;7.006;2022-10-26T05:29:09;99873.00;;;14.56;79.56
46009;BME280;39597;51.438;7.006;2022-10-26T05:31:35;99873.13;;;14.63;79.22
46009;BME280;39597;51.438;7.006;2022-10-26T05:34:00;99866.41;;;14.60;78.78
46009;BME280;39597;51.438;7.006;2022-10-26T05:36:25;99870.81;;;14.65;78.39
46009;BME280;39597;51.438;7.006;2022-10-26T05:38:51;99879.97;;;14.76;78.32
46009;BME280;39597;51.438;7.006;2022-10-26T05:41:16;99874.94;;;14.55;78.19
46009;BME280;39597;51.438;7.006;2022-10-26T05:43:41;99874.44;;;14.72;77.48
46009;BME280;39597;51.438;7.006;2022-10-26T05:46:06;99878.81;;;14.77;77.69
46009;BME280;39597;51.438;7.006;2022-10-26T05:48:32;99871.19;;;14.63;77.76
46009;BME280;39597;51.438;7.006;2022-10-26T05:51:00;99865.06;;;14.73;76.84
46009;BME280;39597;51.438;7.006;2022-10-26T05:53:27;99866.25;;;14.76;76.94
46009;BME280;39597;51.438;7.006;2022-10-26T05:55:53;99873.22;;;14.70;76.82
46009;BME280;39597;51.438;7.006;2022-10-26T05:58:21;99870.38;;;14.63;77.47
46009;BME280;39597;51.438;7.006;2022-10-26T06:03:26;99874.44;;;14.72;77.16
46009;BME280;39597;51.438;7.006;2022-10-26T06:05:57;99874.09;;;14.51;77.93
46009;BME280;39597;51.438;7.006;2022-10-26T06:08:26;99881.16;;;14.52;78.43
46009;BME280;39597;51.438;7.006;2022-10-26T06:10:53;99884.94;;;14.44;78.47
46009;BME280;39597;51.438;7.006;2022-10-26T06:13:19;99883.47;;;14.50;77.95
46009;BME280;39597;51.438;7.006;2022-10-26T06:19:25;99878.09;;;14.57;77.50
46009;BME280;39597;51.438;7.006;2022-10-26T06:30:08;99873.28;;;15.00;75.69
46009;BME280;39597;51.438;7.006;2022-10-26T06:32:38;99874.13;;;15.04;75.61
46009;BME280;39597;51.438;7.006;2022-10-26T06:35:18;99878.97;;;15.14;74.88
46009;BME280;39597;51.438;7.006;2022-10-26T06:37:48;99878.06;;;15.07;74.72
46009;BME280;39597;51.438;7.006;2022-10-26T06:40:16;99878.97;;;15.14;74.23
46009;BME280;39597;51.438;7.006;2022-10-26T06:42:42;99883.28;;;15.15;73.79
46009;BME280;39597;51.438;7.006;2022-10-26T06:45:14;99887.84;;;15.34;72.92
46009;BME280;39597;51.438;7.006;2022-10-26T06:48:09;99884.03;;;15.42;72.36
46009;BME280;39597;51.438;7.006;2022-10-26T06:50:42;99880.03;;;15.36;72.46
46009;BME280;39597;51.438;7.006;2022-10-26T06:53:32;99886.41;;;15.44;71.89
46009;BME280;39597;51.438;7.006;2022-10-26T06:56:01;99893.19;;;15.53;70.32
46009;BME280;39597;51.438;7.006;2022-10-26T06:58:30;99894.34;;;15.52;70.18
46009;BME280;39597;51.438;7.006;2022-10-26T07:00:57;99895.97;;;15.57;69.95
46009;BME280;39597;51.438;7.006;2022-10-26T07:03:22;99896.84;;;15.61;69.16
46009;BME280;39597;51.438;7.006;2022-10-26T07:05:48;99890.94;;;15.59;69.10
46009;BME280;39597;51.438;7.006;2022-10-26T07:08:13;99898.69;;;15.53;69.16
46009;BME280;39597;51.438;7.006;2022-10-26T07:10:38;99897.09;;;15.52;68.84
46009;BME280;39597;51.438;7.006;2022-10-26T07:13:05;99893.78;;;15.66;68.53
46009;BME280;39597;51.438;7.006;2022-10-26T07:15:31;99892.06;;;15.58;69.48
46009;BME280;39597;51.438;7.006;2022-10-26T07:17:56;99891.53;;;15.75;68.87
46009;BME280;39597;51.438;7.006;2022-10-26T07:20:21;99896.84;;;15.61;69.50
46009;BME280;39597;51.438;7.006;2022-10-26T07:22:54;99896.94;;;15.68;69.16
46009;BME280;39597;51.438;7.006;2022-10-26T07:25:21;99898.94;;;15.45;70.85
46009;BME280;39597;51.438;7.006;2022-10-26T07:27:47;99907.03;;;15.60;70.64
46009;BME280;39597;51.438;7.006;2022-10-26T07:30:12;99901.81;;;15.52;71.31
46009;BME280;39597;51.438;7.006;2022-10-26T07:32:38;99897.06;;;15.49;71.53
46009;BME280;39597;51.438;7.006;2022-10-26T07:35:04;99902.97;;;15.51;71.91
46009;BME280;39597;51.438;7.006;2022-10-26T07:37:29;99902.25;;;15.57;71.81
46009;BME280;39597;51.438;7.006;2022-10-26T07:39:54;99907.75;;;15.57;72.41
46009;BME280;39597;51.438;7.006;2022-10-26T07:42:19;99905.59;;;15.44;73.21
46009;BME280;39597;51.438;7.006;2022-10-26T07:44:45;99908.50;;;15.54;73.02
46009;BME280;39597;51.438;7.006;2022-10-26T07:47:10;99911.53;;;15.46;73.68
46009;BME280;39597;51.438;7.006;2022-10-26T07:49:35;99904.34;;;15.38;74.49
46009;BME280;39597;51.438;7.006;2022-10-26T07:52:01;99917.84;;;15.50;74.29
46009;BME280;39597;51.438;7.006;2022-10-26T07:54:26;99929.03;;;15.64;73.80
46009;BME280;39597;51.438;7.006;2022-10-26T07:56:51;99922.06;;;15.70;73.60
46009;BME280;39597;51.438;7.006;2022-10-26T07:59:17;99921.84;;;15.56;74.25
46009;BME280;39597;51.438;7.006;2022-10-26T08:01:42;99924.72;;;15.63;74.13
46009;BME280;39597;51.438;7.006;2022-10-26T08:04:08;99925.13;;;15.65;74.64
46009;BME280;39597;51.438;7.006;2022-10-26T08:06:33;99928.25;;;15.63;74.51
46009;BME280;39597;51.438;7.006;2022-10-26T08:08:58;99929.13;;;15.71;73.95
46009;BME280;39597;51.438;7.006;2022-10-26T08:11:24;99925.38;;;15.86;73.55
46009;BME280;39597;51.438;7.006;2022-10-26T08:13:55;99911.78;;;15.97;73.50
46009;BME280;39597;51.438;7.006;2022-10-26T08:16:21;99915.25;;;15.94;73.95
46009;BME280;39597;51.438;7.006;2022-10-26T08:18:48;99915.38;;;16.05;73.58
46009;BME280;39597;51.438;7.006;2022-10-26T08:21:14;99927.16;;;16.05;73.66
46009;BME280;39597;51.438;7.006;2022-10-26T08:23:39;99920.81;;;15.98;73.65
46009;BME280;39597;51.438;7.006;2022-10-26T08:26:05;99925.63;;;16.08;73.46
46009;BME280;39597;51.438;7.006;2022-10-26T08:28:30;99912.63;;;16.05;74.04
46009;BME280;39597;51.438;7.006;2022-10-26T08:30:56;99911.63;;;16.20;72.91
46009;BME280;39597;51.438;7.006;2022-10-26T08:33:21;99909.94;;;16.08;73.50
46009;BME280;39597;51.438;7.006;2022-10-26T08:35:48;99930.50;;;16.25;72.45
46009;BME280;39597;51.438;7.006;2022-10-26T08:38:14;99928.38;;;16.08;72.97
46009;BME280;39597;51.438;7.006;2022-10-26T08:40:40;99937.63;;;16.30;72.78
46009;BME280;39597;51.438;7.006;2022-10-26T08:43:51;99926.66;;;16.33;72.99
46009;BME280;39597;51.438;7.006;2022-10-26T08:46:29;99939.16;;;16.27;72.72
46009;BME280;39597;51.438;7.006;2022-10-26T08:49:19;99955.56;;;16.20;72.30
46009;BME280;39597;51.438;7.006;2022-10-26T08:51:49;99957.28;;;16.32;72.41
46009;BME280;39597;51.438;7.006;2022-10-26T08:56:55;99964.34;;;16.33;72.45
46009;BME280;39597;51.438;7.006;2022-10-26T08:59:37;99957.31;;;16.35;72.71
46009;BME280;39597;51.438;7.006;2022-10-26T09:02:22;99955.13;;;16.51;72.00
46009;BME280;39597;51.438;7.006;2022-10-26T09:04:50;99958.28;;;16.53;72.10
46009;BME280;39597;51.438;7.006;2022-10-26T09:07:52;99958.84;;;16.70;71.95
46009;BME280;39597;51.438;7.006;2022-10-26T09:10:34;99968.16;;;16.62;72.40
46009;BME280;39597;51.438;7.006;2022-10-26T09:19:04;99977.69;;;16.71;72.39
46009;BME280;39597;51.438;7.006;2022-10-26T09:21:47;99988.41;;;16.80;72.17
46009;BME280;39597;51.438;7.006;2022-10-26T09:24:24;99997.06;;;16.82;72.31
46009;BME280;39597;51.438;7.006;2022-10-26T09:26:55;99997.06;;;16.82;72.05
46009;BME280;39597;51.438;7.006;2022-10-26T09:29:31;100011.66;;;16.93;72.38
46009;BME280;39597;51.438;7.006;2022-10-26T09:31:59;100012.91;;;16.99;72.06
46009;BME280;39597;51.438;7.006;2022-10-26T09:34:30;100008.13;;;16.93;72.16
46009;BME280;39597;51.438;7.006;2022-10-26T09:36:56;100008.06;;;16.82;72.40
46009;BME280;39597;51.438;7.006;2022-10-26T09:39:23;100007.22;;;16.78;72.63
46009;BME280;39597;51.438;7.006;2022-10-26T09:42:11;100020.56;;;16.79;72.82
46009;BME280;39597;51.438;7.006;2022-10-26T09:44:46;100017.34;;;16.67;72.83
46009;BME280;39597;51.438;7.006;2022-10-26T09:47:37;100020.34;;;16.58;73.58
46009;BME280;39597;51.438;7.006;2022-10-26T09:50:22;100042.69;;;16.53;74.03
46009;BME280;39597;51.438;7.006;2022-10-26T09:52:50;100042.28;;;16.51;74.39
46009;BME280;39597;51.438;7.006;2022-10-26T09:55:15;100031.97;;;16.44;74.46
46009;BME280;39597;51.438;7.006;2022-10-26T09:57:41;100057.81;;;16.36;75.24
46009;BME280;39597;51.438;7.006;2022-10-26T10:00:12;100053.81;;;16.30;75.20
46009;BME280;39597;51.438;7.006;2022-10-26T10:02:43;100065.59;;;16.31;75.40
46009;BME280;39597;51.438;7.006;2022-10-26T10:05:29;100064.06;;;16.33;75.67
46009;BME280;39597;51.438;7.006;2022-10-26T10:08:14;100069.25;;;16.42;75.64
46009;BME280;39597;51.438;7.006;2022-10-26T10:11:18;100063.56;;;16.61;75.45
46009;BME280;39597;51.438;7.006;2022-10-26T10:13:44;100059.13;;;16.83;75.08
46009;BME280;39597;51.438;7.006;2022-10-26T10:16:21;100074.88;;;16.86;74.75
46009;BME280;39597;51.438;7.006;2022-10-26T10:18:55;100072.97;;;16.94;74.85
46009;BME280;39597;51.438;7.006;2022-10-26T10:21:33;100072.56;;;16.95;74.25
46009;BME280;39597;51.438;7.006;2022-10-26T10:23:59;100077.41;;;17.05;74.57
46009;BME280;39597;51.438;7.006;2022-10-26T10:26:25;100078.25;;;17.13;73.91
46009;BME280;39597;51.438;7.006;2022-10-26T10:28:58;100067.63;;;17.11;73.99
46009;BME280;39597;51.438;7.006;2022-10-26T10:31:30;100079.78;;;17.10;74.52
46009;BME280;39597;51.438;7.006;2022-10-26T10:33:55;100076.78;;;17.23;74.48
46009;BME280;39597;51.438;7.006;2022-10-26T10:36:21;100078.75;;;17.26;74.48
46009;BME280;39597;51.438;7.006;2022-10-26T10:38:49;100082.81;;;17.42;74.19
46009;BME280;39597;51.438;7.006;2022-10-26T10:41:17;100080.53;;;17.48;73.83
46009;BME280;39597;51.438;7.006;2022-10-26T10:43:46;100087.13;;;17.40;74.27
46009;BME280;39597;51.438;7.006;2022-10-26T10:46:19;100086.38;;;17.47;74.08
46009;BME280;39597;51.438;7.006;2022-10-26T10:48:53;100098.25;;;17.54;74.15
46009;BME280;39597;51.438;7.006;2022-10-26T10:51:22;100097.50;;;17.61;74.31
46009;BME280;39597;51.438;7.006;2022-10-26T10:53:51;100100.25;;;17.61;74.15
46009;BME280;39597;51.438;7.006;2022-10-26T11:01:21;100112.44;;;17.60;74.21
46009;BME280;39597;51.438;7.006;2022-10-26T11:03:59;100111.31;;;17.64;73.95
46009;BME280;39597;51.438;7.006;2022-10-26T11:06:33;100127.38;;;17.59;74.58
46009;BME280;39597;51.438;7.006;2022-10-26T11:09:03;100124.69;;;17.66;74.50
46009;BME280;39597;51.438;7.006;2022-10-26T11:11:37;100121.63;;;17.74;74.30
46009;BME280;39597;51.438;7.006;2022-10-26T11:14:36;100122.88;;;17.81;74.20
46009;BME280;39597;51.438;7.006;2022-10-26T11:19:57;100122.09;;;17.84;74.85
46009;BME280;39597;51.438;7.006;2022-10-26T11:25:34;100132.78;;;17.96;74.52
46009;BME280;39597;51.438;7.006;2022-10-26T11:28:11;100126.84;;;17.90;74.59
46009;BME280;39597;51.438;7.006;2022-10-26T11:30:44;100135.50;;;17.89;74.44
46009;BME280;39597;51.438;7.006;2022-10-26T11:33:33;100128.50;;;18.02;74.38
46009;BME280;39597;51.438;7.006;2022-10-26T11:36:08;100126.94;;;18.04;74.65
46009;BME280;39597;51.438;7.006;2022-10-26T11:38:54;100132.16;;;18.24;73.91
46009;BME280;39597;51.438;7.006;2022-10-26T11:41:34;100137.28;;;18.25;74.09
46009;BME280;39597;51.438;7.006;2022-10-26T11:46:39;100135.06;;;18.56;73.07
46009;BME280;39597;51.438;7.006;2022-10-26T11:51:42;100134.28;;;18.48;73.12
46009;BME280;39597;51.438;7.006;2022-10-26T11:54:22;100137.81;;;18.52;73.20
46009;BME280;39597;51.438;7.006;2022-10-26T11:56:54;100152.88;;;18.66;73.30
46009;BME280;39597;51.438;7.006;2022-10-26T11:59:26;100153.25;;;18.64;73.40
46009;BME280;39597;51.438;7.006;2022-10-26T12:02:20;100157.63;;;18.76;73.34
46009;BME280;39597;51.438;7.006;2022-10-26T12:04:50;100159.66;;;18.82;72.83
46009;BME280;39597;51.438;7.006;2022-10-26T12:07:26;100156.50;;;18.87;72.85
46009;BME280;39597;51.438;7.006;2022-10-26T12:09:53;100152.16;;;18.90;72.63
46009;BME280;39597;51.438;7.006;2022-10-26T12:12:48;100150.19;;;18.90;72.73
46009;BME280;39597;51.438;7.006;2022-10-26T12:15:24;100147.41;;;18.80;73.59
46009;BME280;39597;51.438;7.006;2022-10-26T12:18:19;100154.91;;;18.86;73.74
46009;BME280;39597;51.438;7.006;2022-10-26T12:20:59;100157.31;;;19.02;73.10
46009;BME280;39597;51.438;7.006;2022-10-26T12:23:35;100156.16;;;19.07;73.19
46009;BME280;39597;51.438;7.006;2022-10-26T12:34:21;100169.94;;;19.07;72.61
46009;BME280;39597;51.438;7.006;2022-10-26T12:52:48;100190.09;;;19.18;72.91
46009;BME280;39597;51.438;7.006;2022-10-26T13:08:47;100218.69;;;18.74;74.44
46009;BME280;39597;51.438;7.006;2022-10-26T13:11:18;100220.69;;;18.77;74.89
46009;BME280;39597;51.438;7.006;2022-10-26T13:13:53;100213.97;;;18.78;74.86
46009;BME280;39597;51.438;7.006;2022-10-26T13:16:19;100217.97;;;18.88;74.94
46009;BME280;39597;51.438;7.006;2022-10-26T13:18:46;100216.41;;;18.87;74.92
46009;BME280;39597;51.438;7.006;2022-10-26T13:21:16;100221.13;;;18.90;74.57
46009;BME280;39597;51.438;7.006;2022-10-26T13:23:54;100223.50;;;18.88;74.67
46009;BME280;39597;51.438;7.006;2022-10-26T13:26:30;100221.13;;;18.90;74.71
46009;BME280;39597;51.438;7.006;2022-10-26T13:29:01;100222.72;;;18.87;74.90
46009;BME280;39597;51.438;7.006;2022-10-26T13:34:28;100230.22;;;18.94;75.19
46009;BME280;39597;51.438;7.006;2022-10-26T13:39:39;100219.19;;;18.98;74.75
46009;BME280;39597;51.438;7.006;2022-10-26T13:42:06;100217.19;;;18.94;74.59
46009;BME280;39597;51.438;7.006;2022-10-26T13:44:43;100225.09;;;18.92;74.52
46009;BME280;39597;51.438;7.006;2022-10-26T13:47:16;100219.19;;;18.94;74.78
46009;BME280;39597;51.438;7.006;2022-10-26T13:49:46;100217.59;;;18.97;74.14
46009;BME280;39597;51.438;7.006;2022-10-26T13:52:18;100225.13;;;19.00;73.93
46009;BME280;39597;51.438;7.006;2022-10-26T13:58:19;100233.00;;;19.01;73.05
46009;BME280;39597;51.438;7.006;2022-10-26T14:03:38;100234.94;;;18.93;73.53
46009;BME280;39597;51.438;7.006;2022-10-26T14:06:37;100236.53;;;18.94;73.63
46009;BME280;39597;51.438;7.006;2022-10-26T14:08:59;100240.84;;;18.96;73.48
46009;BME280;39597;51.438;7.006;2022-10-26T14:11:32;100247.16;;;18.96;73.15
46009;BME280;39597;51.438;7.006;2022-10-26T14:13:59;100252.66;;;18.92;72.87
46009;BME280;39597;51.438;7.006;2022-10-26T14:16:28;100244.41;;;18.92;72.64
46009;BME280;39597;51.438;7.006;2022-10-26T14:18:54;100251.88;;;18.92;72.58
46009;BME280;39597;51.438;7.006;2022-10-26T14:21:21;100254.25;;;18.90;72.70
46009;BME280;39597;51.438;7.006;2022-10-26T14:23:49;100242.03;;;18.91;71.97
46009;BME280;39597;51.438;7.006;2022-10-26T14:26:30;100250.31;;;18.91;71.78
46009;BME280;39597;51.438;7.006;2022-10-26T14:28:58;100256.63;;;18.91;71.39
46009;BME280;39597;51.438;7.006;2022-10-26T14:31:31;100258.19;;;18.89;71.63
46009;BME280;39597;51.438;7.006;2022-10-26T14:33:59;100259.75;;;18.90;71.66
46009;BME280;39597;51.438;7.006;2022-10-26T14:36:32;100271.16;;;18.85;71.54
46009;BME280;39597;51.438;7.006;2022-10-26T14:39:05;100261.72;;;18.82;71.77
46009;BME280;39597;51.438;7.006;2022-10-26T14:41:34;100267.97;;;18.79;71.44
46009;BME280;39597;51.438;7.006;2022-10-26T14:43:59;100266.41;;;18.78;71.43
46009;BME280;39597;51.438;7.006;2022-10-26T14:46:27;100263.63;;;18.78;71.63
46009;BME280;39597;51.438;7.006;2022-10-26T14:48:57;100276.63;;;18.78;71.25
46009;BME280;39597;51.438;7.006;2022-10-26T14:51:33;100271.50;;;18.76;71.20
46009;BME280;39597;51.438;7.006;2022-10-26T14:54:00;100276.22;;;18.72;71.26
46009;BME280;39597;51.438;7.006;2022-10-26T15:04:38;100280.84;;;18.61;71.56
46009;BME280;39597;51.438;7.006;2022-10-26T15:09:43;100298.16;;;18.58;72.12
46009;BME280;39597;51.438;7.006;2022-10-26T15:12:34;100287.13;;;18.54;71.98